Hauptseite
METAR-TAF:

METAR-TAF

Flughäfen :

Ingolstadt, Deutschland

Fliegerhorst Ingolstadt/Manching

Breite: 48-43N, Länge: 011-32E, Höhe: 367 m

Beobachtung

Neuester Wetterbericht von vor 38 Minuten, um 11:20 UTC
Wind 6 kt aus Nordwest
Temperatur 19°C
Luftfeuchtigkeit 43%
Luftdruck 1024 hPa
Sichtweite 10 km oder mehr
Leicht bewölkt in der Höhe von 5000 ft
Aufgelockert bewölkt in der Höhe von 22000 ft

METAR: ETSI 211120Z 31006KT 9999 FEW050 SCT220 19/06 Q1024 BLU+BLU+

Zeit: 13:58 (11:58 UTC)

Prognose

Neuester Wetterbericht von vor 1 Stunde und 51 Minuten, um 10:07 UTC
Gültige Prognose vom 21 um 11 UTC bis 21 um 20 UTC
Wind 3 kt aus unterschiedlichen Richtungen
Sichtweite 10 km oder mehr
Leicht bewölkt in der Höhe von 5000 ft
Aufgelockert bewölkt in der Höhe von 28000 ft

TAF: ETSI 211007Z 2111/2120 VRB03KT 9999 NSW FEW050 SCT280

Wetterbeobachtungen und Prognosen von mehr als 4000 Flughäfen (METAR und TAF Bericht).

Die verfügbaren Stationen werden durch gelbe und rote Markierungen auf der Karte dargestellt.

Führen Sie die Maus auf sie, um den Namen der Station zu sehen.

Darauf klicken, um die Beobachtung von Wetterbeobachtungen und Prognosen zu sehen.

Um die Karte zu ändern : klicken Sie auf den grünen Tasten mit einem schwarzen Kreuz Zum Vergrößern, auf den grünen Button mit einem Gedankenstrich zu verkleinern, oder auf die grünen Pfeile für benachbarte Karten.


METAR-TAF: